sensor_id;sensor_type;location;lat;lon;timestamp;P1;durP1;ratioP1;P2;durP2;ratioP2
17251;SDS011;8742;51.716;8.790;2023-11-21T00:02:13;23.93;;;7.90;;
17251;SDS011;8742;51.716;8.790;2023-11-21T00:04:41;18.67;;;8.40;;
17251;SDS011;8742;51.716;8.790;2023-11-21T00:07:08;16.20;;;8.57;;
17251;SDS011;8742;51.716;8.790;2023-11-21T00:09:34;15.23;;;7.60;;
17251;SDS011;8742;51.716;8.790;2023-11-21T00:12:01;16.90;;;7.17;;
17251;SDS011;8742;51.716;8.790;2023-11-21T00:14:28;19.50;;;8.30;;
17251;SDS011;8742;51.716;8.790;2023-11-21T00:16:55;24.47;;;8.60;;
17251;SDS011;8742;51.716;8.790;2023-11-21T00:19:22;24.67;;;8.80;;
17251;SDS011;8742;51.716;8.790;2023-11-21T00:21:50;20.60;;;8.73;;
17251;SDS011;8742;51.716;8.790;2023-11-21T00:24:17;17.33;;;9.40;;
17251;SDS011;8742;51.716;8.790;2023-11-21T00:26:44;29.47;;;9.00;;
17251;SDS011;8742;51.716;8.790;2023-11-21T00:29:13;26.83;;;9.60;;
17251;SDS011;8742;51.716;8.790;2023-11-21T00:31:42;19.97;;;9.83;;
17251;SDS011;8742;51.716;8.790;2023-11-21T00:34:09;24.90;;;9.63;;
17251;SDS011;8742;51.716;8.790;2023-11-21T00:36:37;22.50;;;10.67;;
17251;SDS011;8742;51.716;8.790;2023-11-21T00:39:05;26.60;;;10.33;;
17251;SDS011;8742;51.716;8.790;2023-11-21T00:41:32;26.33;;;10.03;;
17251;SDS011;8742;51.716;8.790;2023-11-21T00:43:59;24.87;;;10.30;;
17251;SDS011;8742;51.716;8.790;2023-11-21T00:46:26;21.60;;;9.90;;
17251;SDS011;8742;51.716;8.790;2023-11-21T00:48:54;25.07;;;10.57;;
17251;SDS011;8742;51.716;8.790;2023-11-21T00:51:21;24.07;;;10.87;;
17251;SDS011;8742;51.716;8.790;2023-11-21T00:53:48;28.33;;;10.70;;
17251;SDS011;8742;51.716;8.790;2023-11-21T00:56:16;30.73;;;9.87;;
17251;SDS011;8742;51.716;8.790;2023-11-21T00:58:43;25.93;;;9.57;;
17251;SDS011;8742;51.716;8.790;2023-11-21T01:01:15;27.37;;;10.13;;
17251;SDS011;8742;51.716;8.790;2023-11-21T01:03:42;26.73;;;9.97;;
17251;SDS011;8742;51.716;8.790;2023-11-21T01:06:11;20.17;;;9.60;;
17251;SDS011;8742;51.716;8.790;2023-11-21T01:08:38;22.37;;;9.53;;
17251;SDS011;8742;51.716;8.790;2023-11-21T01:11:05;21.67;;;8.50;;
17251;SDS011;8742;51.716;8.790;2023-11-21T01:13:34;22.63;;;10.23;;
17251;SDS011;8742;51.716;8.790;2023-11-21T01:16:02;25.23;;;9.93;;
17251;SDS011;8742;51.716;8.790;2023-11-21T01:18:29;31.73;;;10.83;;
17251;SDS011;8742;51.716;8.790;2023-11-21T01:20:55;28.47;;;9.53;;
17251;SDS011;8742;51.716;8.790;2023-11-21T01:23:22;28.07;;;10.47;;
17251;SDS011;8742;51.716;8.790;2023-11-21T01:25:49;25.50;;;10.43;;
17251;SDS011;8742;51.716;8.790;2023-11-21T01:28:16;21.67;;;9.70;;
17251;SDS011;8742;51.716;8.790;2023-11-21T01:30:46;21.17;;;9.83;;
17251;SDS011;8742;51.716;8.790;2023-11-21T01:33:12;22.20;;;10.10;;
17251;SDS011;8742;51.716;8.790;2023-11-21T01:35:40;23.57;;;10.30;;
17251;SDS011;8742;51.716;8.790;2023-11-21T01:38:07;21.67;;;9.57;;
17251;SDS011;8742;51.716;8.790;2023-11-21T01:40:34;19.67;;;9.80;;
17251;SDS011;8742;51.716;8.790;2023-11-21T01:43:01;30.13;;;10.00;;
17251;SDS011;8742;51.716;8.790;2023-11-21T01:45:28;18.60;;;9.50;;
17251;SDS011;8742;51.716;8.790;2023-11-21T01:47:57;25.13;;;10.20;;
17251;SDS011;8742;51.716;8.790;2023-11-21T01:50:25;27.73;;;10.73;;
17251;SDS011;8742;51.716;8.790;2023-11-21T01:52:53;28.10;;;11.00;;
17251;SDS011;8742;51.716;8.790;2023-11-21T01:55:20;25.83;;;9.30;;
17251;SDS011;8742;51.716;8.790;2023-11-21T01:57:47;23.90;;;9.10;;
17251;SDS011;8742;51.716;8.790;2023-11-21T02:00:14;22.23;;;9.63;;
17251;SDS011;8742;51.716;8.790;2023-11-21T02:02:42;23.23;;;9.47;;
17251;SDS011;8742;51.716;8.790;2023-11-21T02:05:11;22.90;;;9.83;;
17251;SDS011;8742;51.716;8.790;2023-11-21T02:07:39;21.37;;;10.00;;
17251;SDS011;8742;51.716;8.790;2023-11-21T02:10:07;26.67;;;10.27;;
17251;SDS011;8742;51.716;8.790;2023-11-21T02:12:33;31.43;;;10.67;;
17251;SDS011;8742;51.716;8.790;2023-11-21T02:15:01;24.63;;;10.83;;
17251;SDS011;8742;51.716;8.790;2023-11-21T02:17:30;23.57;;;10.67;;
17251;SDS011;8742;51.716;8.790;2023-11-21T02:19:57;28.07;;;10.13;;
17251;SDS011;8742;51.716;8.790;2023-11-21T02:22:26;22.63;;;12.23;;
17251;SDS011;8742;51.716;8.790;2023-11-21T02:24:58;35.40;;;12.93;;
17251;SDS011;8742;51.716;8.790;2023-11-21T02:27:25;30.20;;;12.73;;
17251;SDS011;8742;51.716;8.790;2023-11-21T02:29:53;29.70;;;13.23;;
17251;SDS011;8742;51.716;8.790;2023-11-21T02:32:20;39.00;;;14.03;;
17251;SDS011;8742;51.716;8.790;2023-11-21T02:34:48;31.30;;;13.13;;
17251;SDS011;8742;51.716;8.790;2023-11-21T02:37:14;38.30;;;13.53;;
17251;SDS011;8742;51.716;8.790;2023-11-21T02:39:41;38.03;;;16.00;;
17251;SDS011;8742;51.716;8.790;2023-11-21T02:42:10;41.27;;;17.00;;
17251;SDS011;8742;51.716;8.790;2023-11-21T02:44:36;45.67;;;16.67;;
17251;SDS011;8742;51.716;8.790;2023-11-21T02:47:03;41.60;;;17.10;;
17251;SDS011;8742;51.716;8.790;2023-11-21T02:49:30;44.77;;;17.03;;
17251;SDS011;8742;51.716;8.790;2023-11-21T02:51:59;64.77;;;24.53;;
17251;SDS011;8742;51.716;8.790;2023-11-21T02:54:26;43.93;;;16.90;;
17251;SDS011;8742;51.716;8.790;2023-11-21T02:56:53;34.40;;;14.30;;
17251;SDS011;8742;51.716;8.790;2023-11-21T02:59:21;35.70;;;15.53;;
17251;SDS011;8742;51.716;8.790;2023-11-21T03:01:48;38.70;;;16.87;;
17251;SDS011;8742;51.716;8.790;2023-11-21T03:04:15;47.07;;;18.87;;
17251;SDS011;8742;51.716;8.790;2023-11-21T03:06:42;54.70;;;18.83;;
17251;SDS011;8742;51.716;8.790;2023-11-21T03:09:10;42.70;;;16.63;;
17251;SDS011;8742;51.716;8.790;2023-11-21T03:11:38;52.70;;;18.47;;
17251;SDS011;8742;51.716;8.790;2023-11-21T03:14:05;55.63;;;20.13;;
17251;SDS011;8742;51.716;8.790;2023-11-21T03:16:33;48.43;;;18.93;;
17251;SDS011;8742;51.716;8.790;2023-11-21T03:19:00;45.00;;;18.77;;
17251;SDS011;8742;51.716;8.790;2023-11-21T03:21:27;51.40;;;19.80;;
17251;SDS011;8742;51.716;8.790;2023-11-21T03:23:54;53.57;;;19.03;;
17251;SDS011;8742;51.716;8.790;2023-11-21T03:26:21;53.83;;;21.27;;
17251;SDS011;8742;51.716;8.790;2023-11-21T03:28:48;67.77;;;23.00;;
17251;SDS011;8742;51.716;8.790;2023-11-21T03:31:15;61.67;;;23.00;;
17251;SDS011;8742;51.716;8.790;2023-11-21T03:33:45;64.33;;;24.20;;
17251;SDS011;8742;51.716;8.790;2023-11-21T03:36:12;66.40;;;24.27;;
17251;SDS011;8742;51.716;8.790;2023-11-21T03:38:43;70.47;;;24.67;;
17251;SDS011;8742;51.716;8.790;2023-11-21T03:41:10;66.37;;;25.40;;
17251;SDS011;8742;51.716;8.790;2023-11-21T03:43:37;74.97;;;27.20;;
17251;SDS011;8742;51.716;8.790;2023-11-21T03:46:04;77.77;;;27.47;;
17251;SDS011;8742;51.716;8.790;2023-11-21T03:48:32;65.00;;;24.53;;
17251;SDS011;8742;51.716;8.790;2023-11-21T03:51:00;74.73;;;25.80;;
17251;SDS011;8742;51.716;8.790;2023-11-21T03:53:27;72.70;;;26.93;;
17251;SDS011;8742;51.716;8.790;2023-11-21T03:55:54;64.23;;;25.43;;
17251;SDS011;8742;51.716;8.790;2023-11-21T03:58:21;68.77;;;25.93;;
17251;SDS011;8742;51.716;8.790;2023-11-21T04:00:47;75.87;;;26.17;;
17251;SDS011;8742;51.716;8.790;2023-11-21T04:03:15;76.13;;;26.03;;
17251;SDS011;8742;51.716;8.790;2023-11-21T04:05:41;61.17;;;25.13;;
17251;SDS011;8742;51.716;8.790;2023-11-21T04:08:10;75.40;;;26.93;;
17251;SDS011;8742;51.716;8.790;2023-11-21T04:10:36;70.80;;;26.57;;
17251;SDS011;8742;51.716;8.790;2023-11-21T04:13:04;77.60;;;27.47;;
17251;SDS011;8742;51.716;8.790;2023-11-21T04:15:31;72.17;;;28.67;;
17251;SDS011;8742;51.716;8.790;2023-11-21T04:17:58;74.90;;;27.37;;
17251;SDS011;8742;51.716;8.790;2023-11-21T04:20:25;77.17;;;27.10;;
17251;SDS011;8742;51.716;8.790;2023-11-21T04:22:52;76.37;;;27.77;;
17251;SDS011;8742;51.716;8.790;2023-11-21T04:25:20;72.93;;;28.50;;
17251;SDS011;8742;51.716;8.790;2023-11-21T04:27:48;78.50;;;30.00;;
17251;SDS011;8742;51.716;8.790;2023-11-21T04:30:15;80.70;;;29.17;;
17251;SDS011;8742;51.716;8.790;2023-11-21T04:32:42;79.77;;;28.43;;
17251;SDS011;8742;51.716;8.790;2023-11-21T04:35:09;78.50;;;26.37;;
17251;SDS011;8742;51.716;8.790;2023-11-21T04:37:36;69.97;;;27.63;;
17251;SDS011;8742;51.716;8.790;2023-11-21T04:40:03;66.83;;;27.70;;
17251;SDS011;8742;51.716;8.790;2023-11-21T04:42:34;83.53;;;27.63;;
17251;SDS011;8742;51.716;8.790;2023-11-21T04:45:02;75.87;;;26.10;;
17251;SDS011;8742;51.716;8.790;2023-11-21T04:47:33;73.13;;;27.33;;
17251;SDS011;8742;51.716;8.790;2023-11-21T04:50:00;69.50;;;26.67;;
17251;SDS011;8742;51.716;8.790;2023-11-21T04:52:26;61.97;;;25.77;;
17251;SDS011;8742;51.716;8.790;2023-11-21T04:54:53;66.13;;;25.97;;
17251;SDS011;8742;51.716;8.790;2023-11-21T04:57:21;64.93;;;28.10;;
17251;SDS011;8742;51.716;8.790;2023-11-21T04:59:49;65.63;;;27.37;;
17251;SDS011;8742;51.716;8.790;2023-11-21T05:02:16;65.23;;;26.30;;
17251;SDS011;8742;51.716;8.790;2023-11-21T05:04:44;60.43;;;23.67;;
17251;SDS011;8742;51.716;8.790;2023-11-21T05:07:11;60.73;;;25.23;;
17251;SDS011;8742;51.716;8.790;2023-11-21T05:09:40;68.20;;;25.43;;
17251;SDS011;8742;51.716;8.790;2023-11-21T05:12:09;66.17;;;26.03;;
17251;SDS011;8742;51.716;8.790;2023-11-21T05:14:36;64.37;;;26.13;;
17251;SDS011;8742;51.716;8.790;2023-11-21T05:17:04;68.67;;;26.67;;
17251;SDS011;8742;51.716;8.790;2023-11-21T05:19:32;63.03;;;25.53;;
17251;SDS011;8742;51.716;8.790;2023-11-21T05:22:00;64.00;;;25.60;;
17251;SDS011;8742;51.716;8.790;2023-11-21T05:24:27;65.57;;;25.53;;
17251;SDS011;8742;51.716;8.790;2023-11-21T05:26:54;64.63;;;26.23;;
17251;SDS011;8742;51.716;8.790;2023-11-21T05:29:22;72.77;;;27.57;;
17251;SDS011;8742;51.716;8.790;2023-11-21T05:31:49;79.60;;;28.47;;
17251;SDS011;8742;51.716;8.790;2023-11-21T05:34:17;78.63;;;26.70;;
17251;SDS011;8742;51.716;8.790;2023-11-21T05:36:45;79.63;;;29.47;;
17251;SDS011;8742;51.716;8.790;2023-11-21T05:39:13;76.70;;;28.70;;
17251;SDS011;8742;51.716;8.790;2023-11-21T05:41:42;69.50;;;29.30;;
17251;SDS011;8742;51.716;8.790;2023-11-21T05:44:09;79.97;;;30.17;;
17251;SDS011;8742;51.716;8.790;2023-11-21T05:46:35;74.63;;;29.67;;
17251;SDS011;8742;51.716;8.790;2023-11-21T05:49:02;72.97;;;29.47;;
17251;SDS011;8742;51.716;8.790;2023-11-21T05:51:31;80.03;;;29.93;;
17251;SDS011;8742;51.716;8.790;2023-11-21T05:53:57;72.67;;;29.13;;
17251;SDS011;8742;51.716;8.790;2023-11-21T05:56:24;80.07;;;29.50;;
17251;SDS011;8742;51.716;8.790;2023-11-21T05:58:51;76.97;;;29.10;;
17251;SDS011;8742;51.716;8.790;2023-11-21T06:01:18;79.17;;;28.60;;
17251;SDS011;8742;51.716;8.790;2023-11-21T06:03:45;81.37;;;30.40;;
17251;SDS011;8742;51.716;8.790;2023-11-21T06:06:11;81.80;;;28.70;;
17251;SDS011;8742;51.716;8.790;2023-11-21T06:08:40;66.97;;;27.47;;
17251;SDS011;8742;51.716;8.790;2023-11-21T06:11:08;74.73;;;28.63;;
17251;SDS011;8742;51.716;8.790;2023-11-21T06:13:36;67.57;;;28.23;;
17251;SDS011;8742;51.716;8.790;2023-11-21T06:16:03;70.13;;;25.60;;
17251;SDS011;8742;51.716;8.790;2023-11-21T06:18:30;65.80;;;27.20;;
17251;SDS011;8742;51.716;8.790;2023-11-21T06:20:57;86.63;;;28.90;;
17251;SDS011;8742;51.716;8.790;2023-11-21T06:23:25;70.00;;;26.77;;
17251;SDS011;8742;51.716;8.790;2023-11-21T06:25:53;71.27;;;26.53;;
17251;SDS011;8742;51.716;8.790;2023-11-21T06:28:20;67.90;;;26.20;;
17251;SDS011;8742;51.716;8.790;2023-11-21T06:30:47;70.17;;;28.03;;
17251;SDS011;8742;51.716;8.790;2023-11-21T06:33:18;64.80;;;25.00;;
17251;SDS011;8742;51.716;8.790;2023-11-21T06:35:46;73.40;;;27.70;;
17251;SDS011;8742;51.716;8.790;2023-11-21T06:38:13;60.63;;;24.33;;
17251;SDS011;8742;51.716;8.790;2023-11-21T06:40:40;67.17;;;24.93;;
17251;SDS011;8742;51.716;8.790;2023-11-21T06:43:08;57.20;;;24.20;;
17251;SDS011;8742;51.716;8.790;2023-11-21T06:45:35;67.97;;;26.23;;
17251;SDS011;8742;51.716;8.790;2023-11-21T06:48:02;56.37;;;26.27;;
17251;SDS011;8742;51.716;8.790;2023-11-21T06:50:29;56.03;;;24.47;;
17251;SDS011;8742;51.716;8.790;2023-11-21T06:52:56;50.27;;;24.50;;
17251;SDS011;8742;51.716;8.790;2023-11-21T06:55:22;62.77;;;25.23;;
17251;SDS011;8742;51.716;8.790;2023-11-21T06:57:49;61.17;;;25.33;;
17251;SDS011;8742;51.716;8.790;2023-11-21T07:00:18;58.00;;;25.50;;
17251;SDS011;8742;51.716;8.790;2023-11-21T07:02:45;62.60;;;26.30;;
17251;SDS011;8742;51.716;8.790;2023-11-21T07:05:14;59.67;;;25.70;;
17251;SDS011;8742;51.716;8.790;2023-11-21T07:07:45;63.33;;;30.27;;
17251;SDS011;8742;51.716;8.790;2023-11-21T07:10:13;61.97;;;30.23;;
17251;SDS011;8742;51.716;8.790;2023-11-21T07:12:40;66.17;;;30.53;;
17251;SDS011;8742;51.716;8.790;2023-11-21T07:15:07;64.30;;;30.17;;
17251;SDS011;8742;51.716;8.790;2023-11-21T07:17:36;59.93;;;29.20;;
17251;SDS011;8742;51.716;8.790;2023-11-21T07:20:03;63.93;;;28.77;;
17251;SDS011;8742;51.716;8.790;2023-11-21T07:22:31;65.33;;;28.23;;
17251;SDS011;8742;51.716;8.790;2023-11-21T07:24:58;57.53;;;27.83;;
17251;SDS011;8742;51.716;8.790;2023-11-21T07:27:25;66.40;;;28.97;;
17251;SDS011;8742;51.716;8.790;2023-11-21T07:29:52;60.37;;;27.43;;
17251;SDS011;8742;51.716;8.790;2023-11-21T07:32:19;60.67;;;29.37;;
17251;SDS011;8742;51.716;8.790;2023-11-21T07:34:47;77.07;;;29.20;;
17251;SDS011;8742;51.716;8.790;2023-11-21T07:37:14;64.40;;;30.07;;
17251;SDS011;8742;51.716;8.790;2023-11-21T07:39:41;52.97;;;27.43;;
17251;SDS011;8742;51.716;8.790;2023-11-21T07:42:09;60.77;;;28.13;;
17251;SDS011;8742;51.716;8.790;2023-11-21T07:44:36;67.70;;;27.93;;
17251;SDS011;8742;51.716;8.790;2023-11-21T07:47:03;72.37;;;29.00;;
17251;SDS011;8742;51.716;8.790;2023-11-21T07:49:30;61.30;;;29.57;;
17251;SDS011;8742;51.716;8.790;2023-11-21T07:51:59;63.77;;;29.80;;
17251;SDS011;8742;51.716;8.790;2023-11-21T07:54:25;68.30;;;29.20;;
17251;SDS011;8742;51.716;8.790;2023-11-21T07:56:53;66.17;;;29.03;;
17251;SDS011;8742;51.716;8.790;2023-11-21T07:59:19;72.93;;;30.90;;
17251;SDS011;8742;51.716;8.790;2023-11-21T08:01:46;67.43;;;30.93;;
17251;SDS011;8742;51.716;8.790;2023-11-21T08:04:13;76.13;;;34.07;;
17251;SDS011;8742;51.716;8.790;2023-11-21T08:06:40;73.73;;;32.00;;
17251;SDS011;8742;51.716;8.790;2023-11-21T08:09:09;76.43;;;31.97;;
17251;SDS011;8742;51.716;8.790;2023-11-21T08:11:37;76.10;;;33.63;;
17251;SDS011;8742;51.716;8.790;2023-11-21T08:14:04;83.90;;;32.90;;
17251;SDS011;8742;51.716;8.790;2023-11-21T08:16:31;72.00;;;34.50;;
17251;SDS011;8742;51.716;8.790;2023-11-21T08:18:58;74.33;;;32.70;;
17251;SDS011;8742;51.716;8.790;2023-11-21T08:21:25;74.63;;;33.67;;
17251;SDS011;8742;51.716;8.790;2023-11-21T08:23:54;70.03;;;31.60;;
17251;SDS011;8742;51.716;8.790;2023-11-21T08:26:23;69.47;;;30.57;;
17251;SDS011;8742;51.716;8.790;2023-11-21T08:28:50;81.37;;;33.20;;
17251;SDS011;8742;51.716;8.790;2023-11-21T08:31:23;80.13;;;31.30;;
17251;SDS011;8742;51.716;8.790;2023-11-21T08:33:50;59.13;;;28.13;;
17251;SDS011;8742;51.716;8.790;2023-11-21T08:36:20;70.50;;;28.70;;
17251;SDS011;8742;51.716;8.790;2023-11-21T08:38:48;63.27;;;28.30;;
17251;SDS011;8742;51.716;8.790;2023-11-21T08:41:18;64.77;;;27.23;;
17251;SDS011;8742;51.716;8.790;2023-11-21T08:43:47;62.37;;;27.33;;
17251;SDS011;8742;51.716;8.790;2023-11-21T08:46:15;60.27;;;28.00;;
17251;SDS011;8742;51.716;8.790;2023-11-21T08:48:43;65.17;;;28.80;;
17251;SDS011;8742;51.716;8.790;2023-11-21T08:51:10;66.10;;;29.50;;
17251;SDS011;8742;51.716;8.790;2023-11-21T08:53:39;64.57;;;29.53;;
17251;SDS011;8742;51.716;8.790;2023-11-21T08:56:06;63.83;;;29.07;;
17251;SDS011;8742;51.716;8.790;2023-11-21T08:58:35;65.37;;;29.63;;
17251;SDS011;8742;51.716;8.790;2023-11-21T09:01:04;73.47;;;30.37;;
17251;SDS011;8742;51.716;8.790;2023-11-21T09:03:32;71.73;;;30.90;;
17251;SDS011;8742;51.716;8.790;2023-11-21T09:05:59;62.03;;;29.87;;
17251;SDS011;8742;51.716;8.790;2023-11-21T09:08:27;72.40;;;32.03;;
17251;SDS011;8742;51.716;8.790;2023-11-21T09:10:54;75.33;;;30.60;;
17251;SDS011;8742;51.716;8.790;2023-11-21T09:13:22;59.47;;;29.33;;
17251;SDS011;8742;51.716;8.790;2023-11-21T09:15:50;62.87;;;29.20;;
17251;SDS011;8742;51.716;8.790;2023-11-21T09:18:18;74.60;;;28.93;;
17251;SDS011;8742;51.716;8.790;2023-11-21T09:20:45;58.77;;;27.50;;
17251;SDS011;8742;51.716;8.790;2023-11-21T09:23:12;58.27;;;26.67;;
17251;SDS011;8742;51.716;8.790;2023-11-21T09:25:39;56.57;;;25.57;;
17251;SDS011;8742;51.716;8.790;2023-11-21T09:28:05;59.33;;;25.97;;
17251;SDS011;8742;51.716;8.790;2023-11-21T09:30:35;53.93;;;25.40;;
17251;SDS011;8742;51.716;8.790;2023-11-21T09:33:03;43.23;;;23.60;;
17251;SDS011;8742;51.716;8.790;2023-11-21T09:35:34;53.73;;;23.67;;
17251;SDS011;8742;51.716;8.790;2023-11-21T09:38:01;47.23;;;22.50;;
17251;SDS011;8742;51.716;8.790;2023-11-21T09:40:30;46.57;;;22.70;;
17251;SDS011;8742;51.716;8.790;2023-11-21T09:42:57;44.60;;;23.93;;
17251;SDS011;8742;51.716;8.790;2023-11-21T09:45:25;43.40;;;23.00;;
17251;SDS011;8742;51.716;8.790;2023-11-21T09:47:53;44.87;;;23.83;;
17251;SDS011;8742;51.716;8.790;2023-11-21T09:50:21;43.80;;;22.73;;
17251;SDS011;8742;51.716;8.790;2023-11-21T09:52:54;42.53;;;23.00;;
17251;SDS011;8742;51.716;8.790;2023-11-21T09:55:24;43.43;;;22.37;;
17251;SDS011;8742;51.716;8.790;2023-11-21T09:57:53;39.40;;;19.97;;
17251;SDS011;8742;51.716;8.790;2023-11-21T10:00:22;40.27;;;19.37;;
17251;SDS011;8742;51.716;8.790;2023-11-21T10:02:49;33.93;;;18.17;;
17251;SDS011;8742;51.716;8.790;2023-11-21T10:05:18;36.30;;;19.43;;
17251;SDS011;8742;51.716;8.790;2023-11-21T10:07:47;36.80;;;19.30;;
17251;SDS011;8742;51.716;8.790;2023-11-21T10:10:18;36.90;;;18.77;;
17251;SDS011;8742;51.716;8.790;2023-11-21T10:12:49;36.23;;;19.83;;
17251;SDS011;8742;51.716;8.790;2023-11-21T10:15:19;36.17;;;18.77;;
17251;SDS011;8742;51.716;8.790;2023-11-21T10:17:48;36.03;;;19.53;;
17251;SDS011;8742;51.716;8.790;2023-11-21T10:20:18;46.13;;;20.87;;
17251;SDS011;8742;51.716;8.790;2023-11-21T10:22:46;41.80;;;21.27;;
17251;SDS011;8742;51.716;8.790;2023-11-21T10:25:13;41.93;;;21.37;;
17251;SDS011;8742;51.716;8.790;2023-11-21T10:27:44;43.67;;;23.73;;
17251;SDS011;8742;51.716;8.790;2023-11-21T10:30:16;45.47;;;23.67;;
17251;SDS011;8742;51.716;8.790;2023-11-21T10:32:46;46.67;;;23.93;;
17251;SDS011;8742;51.716;8.790;2023-11-21T10:35:16;46.47;;;24.33;;
17251;SDS011;8742;51.716;8.790;2023-11-21T10:37:59;51.97;;;25.17;;
17251;SDS011;8742;51.716;8.790;2023-11-21T10:40:28;51.57;;;25.80;;
17251;SDS011;8742;51.716;8.790;2023-11-21T10:42:56;49.03;;;24.23;;
17251;SDS011;8742;51.716;8.790;2023-11-21T10:45:34;51.37;;;25.33;;
17251;SDS011;8742;51.716;8.790;2023-11-21T10:48:04;54.50;;;26.70;;
17251;SDS011;8742;51.716;8.790;2023-11-21T10:50:35;55.63;;;26.73;;
17251;SDS011;8742;51.716;8.790;2023-11-21T10:53:03;55.80;;;27.27;;
17251;SDS011;8742;51.716;8.790;2023-11-21T10:55:31;57.40;;;26.27;;
17251;SDS011;8742;51.716;8.790;2023-11-21T10:58:00;52.57;;;25.23;;
17251;SDS011;8742;51.716;8.790;2023-11-21T11:00:32;49.37;;;24.70;;
17251;SDS011;8742;51.716;8.790;2023-11-21T11:03:00;53.20;;;25.63;;
17251;SDS011;8742;51.716;8.790;2023-11-21T11:05:27;53.43;;;26.73;;
17251;SDS011;8742;51.716;8.790;2023-11-21T11:07:58;57.17;;;26.93;;
17251;SDS011;8742;51.716;8.790;2023-11-21T11:10:29;56.63;;;26.63;;
17251;SDS011;8742;51.716;8.790;2023-11-21T11:12:57;54.77;;;26.43;;
17251;SDS011;8742;51.716;8.790;2023-11-21T11:15:26;56.80;;;26.10;;
17251;SDS011;8742;51.716;8.790;2023-11-21T11:17:54;53.43;;;24.97;;
17251;SDS011;8742;51.716;8.790;2023-11-21T11:20:22;53.30;;;27.80;;
17251;SDS011;8742;51.716;8.790;2023-11-21T11:22:56;56.80;;;27.13;;
17251;SDS011;8742;51.716;8.790;2023-11-21T11:25:37;58.00;;;26.53;;
17251;SDS011;8742;51.716;8.790;2023-11-21T11:28:29;62.20;;;27.40;;
17251;SDS011;8742;51.716;8.790;2023-11-21T11:31:04;63.57;;;27.30;;
17251;SDS011;8742;51.716;8.790;2023-11-21T11:33:38;57.47;;;25.70;;
17251;SDS011;8742;51.716;8.790;2023-11-21T11:36:10;56.73;;;25.63;;
17251;SDS011;8742;51.716;8.790;2023-11-21T11:38:45;49.03;;;25.30;;
17251;SDS011;8742;51.716;8.790;2023-11-21T11:41:19;46.17;;;22.63;;
17251;SDS011;8742;51.716;8.790;2023-11-21T11:43:53;48.30;;;25.00;;
17251;SDS011;8742;51.716;8.790;2023-11-21T11:46:20;47.20;;;24.43;;
17251;SDS011;8742;51.716;8.790;2023-11-21T11:49:06;51.07;;;24.97;;
17251;SDS011;8742;51.716;8.790;2023-11-21T11:51:33;47.17;;;24.67;;
17251;SDS011;8742;51.716;8.790;2023-11-21T11:54:01;49.80;;;24.80;;
17251;SDS011;8742;51.716;8.790;2023-11-21T11:56:28;47.37;;;24.27;;
17251;SDS011;8742;51.716;8.790;2023-11-21T11:59:01;42.97;;;23.27;;
17251;SDS011;8742;51.716;8.790;2023-11-21T12:01:30;44.77;;;23.30;;
17251;SDS011;8742;51.716;8.790;2023-11-21T12:04:22;47.77;;;22.47;;
17251;SDS011;8742;51.716;8.790;2023-11-21T12:06:55;30.47;;;16.70;;
17251;SDS011;8742;51.716;8.790;2023-11-21T12:09:25;26.73;;;14.07;;
17251;SDS011;8742;51.716;8.790;2023-11-21T12:11:53;19.07;;;10.60;;
17251;SDS011;8742;51.716;8.790;2023-11-21T12:14:23;15.73;;;9.57;;
17251;SDS011;8742;51.716;8.790;2023-11-21T12:16:50;14.30;;;8.30;;
17251;SDS011;8742;51.716;8.790;2023-11-21T12:19:18;13.73;;;8.33;;
17251;SDS011;8742;51.716;8.790;2023-11-21T12:21:48;13.67;;;7.50;;
17251;SDS011;8742;51.716;8.790;2023-11-21T12:24:16;11.07;;;6.93;;
17251;SDS011;8742;51.716;8.790;2023-11-21T12:26:43;12.90;;;7.87;;
17251;SDS011;8742;51.716;8.790;2023-11-21T12:29:11;11.10;;;7.30;;
17251;SDS011;8742;51.716;8.790;2023-11-21T12:31:45;13.43;;;7.63;;
17251;SDS011;8742;51.716;8.790;2023-11-21T12:34:16;13.70;;;7.90;;
17251;SDS011;8742;51.716;8.790;2023-11-21T12:36:45;11.47;;;7.50;;
17251;SDS011;8742;51.716;8.790;2023-11-21T12:39:14;7.37;;;5.47;;
17251;SDS011;8742;51.716;8.790;2023-11-21T12:41:41;6.20;;;4.17;;
17251;SDS011;8742;51.716;8.790;2023-11-21T12:44:09;4.53;;;3.07;;
17251;SDS011;8742;51.716;8.790;2023-11-21T12:46:40;3.43;;;2.97;;
17251;SDS011;8742;51.716;8.790;2023-11-21T12:49:11;2.87;;;2.57;;
17251;SDS011;8742;51.716;8.790;2023-11-21T12:51:42;5.47;;;3.10;;
17251;SDS011;8742;51.716;8.790;2023-11-21T12:54:09;3.90;;;3.20;;
17251;SDS011;8742;51.716;8.790;2023-11-21T12:56:38;4.30;;;3.10;;
17251;SDS011;8742;51.716;8.790;2023-11-21T12:59:04;3.03;;;2.83;;
17251;SDS011;8742;51.716;8.790;2023-11-21T13:01:31;5.47;;;3.37;;
17251;SDS011;8742;51.716;8.790;2023-11-21T13:04:02;6.67;;;3.47;;
17251;SDS011;8742;51.716;8.790;2023-11-21T13:06:31;4.03;;;3.63;;
17251;SDS011;8742;51.716;8.790;2023-11-21T13:09:03;4.27;;;3.63;;
17251;SDS011;8742;51.716;8.790;2023-11-21T13:11:33;5.40;;;4.10;;
17251;SDS011;8742;51.716;8.790;2023-11-21T13:14:01;4.33;;;3.93;;
17251;SDS011;8742;51.716;8.790;2023-11-21T13:16:29;6.73;;;4.70;;
17251;SDS011;8742;51.716;8.790;2023-11-21T13:18:56;5.50;;;4.80;;
17251;SDS011;8742;51.716;8.790;2023-11-21T13:21:26;12.27;;;5.03;;
17251;SDS011;8742;51.716;8.790;2023-11-21T13:23:55;12.90;;;5.03;;
17251;SDS011;8742;51.716;8.790;2023-11-21T13:26:22;6.50;;;4.37;;
17251;SDS011;8742;51.716;8.790;2023-11-21T13:28:50;5.40;;;4.17;;
17251;SDS011;8742;51.716;8.790;2023-11-21T13:31:18;7.87;;;4.67;;
17251;SDS011;8742;51.716;8.790;2023-11-21T13:33:52;6.67;;;4.77;;
17251;SDS011;8742;51.716;8.790;2023-11-21T13:36:21;6.03;;;4.63;;
17251;SDS011;8742;51.716;8.790;2023-11-21T13:38:49;5.37;;;4.50;;
17251;SDS011;8742;51.716;8.790;2023-11-21T13:41:19;9.50;;;5.60;;
17251;SDS011;8742;51.716;8.790;2023-11-21T13:43:53;9.43;;;5.30;;
17251;SDS011;8742;51.716;8.790;2023-11-21T13:46:28;7.30;;;4.90;;
17251;SDS011;8742;51.716;8.790;2023-11-21T13:49:00;7.43;;;5.07;;
17251;SDS011;8742;51.716;8.790;2023-11-21T13:51:26;10.00;;;5.47;;
17251;SDS011;8742;51.716;8.790;2023-11-21T13:54:02;9.27;;;5.80;;
17251;SDS011;8742;51.716;8.790;2023-11-21T13:56:35;7.87;;;5.50;;
17251;SDS011;8742;51.716;8.790;2023-11-21T13:59:04;9.83;;;6.47;;
17251;SDS011;8742;51.716;8.790;2023-11-21T14:01:43;8.43;;;6.63;;
17251;SDS011;8742;51.716;8.790;2023-11-21T14:04:24;10.67;;;6.90;;
17251;SDS011;8742;51.716;8.790;2023-11-21T14:07:11;10.53;;;7.67;;
17251;SDS011;8742;51.716;8.790;2023-11-21T14:09:47;15.67;;;8.20;;
17251;SDS011;8742;51.716;8.790;2023-11-21T14:12:16;12.20;;;7.70;;
17251;SDS011;8742;51.716;8.790;2023-11-21T14:14:43;11.90;;;7.77;;
17251;SDS011;8742;51.716;8.790;2023-11-21T14:17:12;12.67;;;8.00;;
17251;SDS011;8742;51.716;8.790;2023-11-21T14:19:39;11.70;;;7.30;;
17251;SDS011;8742;51.716;8.790;2023-11-21T14:22:08;12.27;;;8.03;;
17251;SDS011;8742;51.716;8.790;2023-11-21T14:24:35;12.47;;;7.37;;
17251;SDS011;8742;51.716;8.790;2023-11-21T14:27:06;13.37;;;8.17;;
17251;SDS011;8742;51.716;8.790;2023-11-21T14:29:35;12.73;;;8.13;;
17251;SDS011;8742;51.716;8.790;2023-11-21T14:32:04;13.53;;;7.90;;
17251;SDS011;8742;51.716;8.790;2023-11-21T14:34:31;13.63;;;7.53;;
17251;SDS011;8742;51.716;8.790;2023-11-21T14:36:58;11.37;;;7.23;;
17251;SDS011;8742;51.716;8.790;2023-11-21T14:39:28;12.97;;;7.80;;
17251;SDS011;8742;51.716;8.790;2023-11-21T14:41:55;12.27;;;7.77;;
17251;SDS011;8742;51.716;8.790;2023-11-21T14:44:24;13.80;;;7.77;;
17251;SDS011;8742;51.716;8.790;2023-11-21T14:46:55;14.90;;;7.80;;